Погода Василикосна неделю

Ионические острова, Греция

31 августа-06 сентября
  • 31августа
    Сегодня
    +23°
    +32°
    Практически безоблачно
    ВремяПогодаТемператураВлажностьДавлениеВетер, м/сВероятность осадков
    00:00Ясно и безоблачно+28°C83 %739 мм1.0 м/с2 %
    03:00Ясно и безоблачно+25°C96 %739 мм1.2 м/с2 %
    06:00Ясно и безоблачно+24°C98 %738 мм1.0 м/с2 %
    09:00Ясно и безоблачно+27°C87 %738 мм3.2 м/с2 %
    12:00Практически безоблачно+30°C74 %739 мм4.1 м/с2 %
    15:00Практически безоблачно+32°C68 %738 мм5.0 м/с8 %
    18:00Ясно и безоблачно+31°C74 %738 мм4.1 м/с11 %
    21:00Практически безоблачно+28°C79 %738 мм2.5 м/с4 %
  • 01сентября
    Вторник
    +24°
    +34°
    Ясно и безоблачно
    ВремяПогодаТемператураВлажностьДавлениеВетер, м/сВероятность осадков
    00:00Практически безоблачно+27°C84 %738 мм2.0 м/с2 %
    03:00Практически безоблачно+25°C89 %738 мм0.6 м/с1 %
    06:00Ясно и безоблачно+23°C93 %737 мм0.4 м/с2 %
    09:00Ясно и безоблачно+27°C81 %738 мм1.0 м/с2 %
    12:00Ясно и безоблачно+32°C60 %739 мм0.9 м/с2 %
    15:00Ясно и безоблачно+34°C61 %739 мм2.0 м/с6 %
    18:00Ясно и безоблачно+34°C64 %738 мм3.0 м/с21 %
    21:00Ясно и безоблачно+29°C76 %738 мм2.8 м/с2 %
  • 02сентября
    Среда
    +23°
    +36°
    Ясно и безоблачно
    ВремяПогодаТемператураВлажностьДавлениеВетер, м/сВероятность осадков
    00:00Ясно и безоблачно+28°C82 %739 мм1.2 м/с2 %
    03:00Ясно и безоблачно+25°C85 %738 мм0.1 м/с2 %
    06:00Ясно и безоблачно+24°C82 %738 мм1.1 м/с2 %
    09:00Ясно и безоблачно+28°C73 %739 мм1.7 м/с2 %
    12:00Ясно и безоблачно+33°C59 %740 мм0.6 м/с2 %
    15:00Ясно и безоблачно+35°C54 %739 мм2.0 м/с10 %
    18:00Ясно и безоблачно+35°C58 %738 мм2.7 м/с7 %
    21:00Ясно и безоблачно+30°C67 %738 мм2.1 м/с2 %
  • 03сентября
    Четверг
    +23°
    +35°
    Ясно и безоблачно
    ВремяПогодаТемператураВлажностьДавлениеВетер, м/сВероятность осадков
    00:00Ясно и безоблачно+28°C76 %738 мм1.0 м/с2 %
    03:00Ясно и безоблачно+25°C84 %737 мм1.4 м/с2 %
    06:00Ясно и безоблачно+24°C81 %737 мм1.3 м/с2 %
    09:00Ясно и безоблачно+28°C65 %737 мм0.6 м/с2 %
    12:00Ясно и безоблачно+33°C51 %738 мм1.4 м/с2 %
    15:00Ясно и безоблачно+35°C56 %737 мм2.1 м/с13 %
    18:00Ясно и безоблачно+35°C47 %737 мм2.2 м/с22 %
    21:00Ясно и безоблачно+30°C58 %737 мм3.1 м/с11 %
  • 04сентября
    Пятница
    +22°
    +35°
    Ясно и безоблачно
    ВремяПогодаТемператураВлажностьДавлениеВетер, м/сВероятность осадков
    00:00Ясно и безоблачно+28°C69 %737 мм2.2 м/с2 %
    03:00Ясно и безоблачно+23°C80 %737 мм2.0 м/с2 %
    06:00Ясно и безоблачно+23°C81 %737 мм3.6 м/с3 %
    09:00Ясно и безоблачно+27°C61 %738 мм4.3 м/с3 %
    12:00Ясно и безоблачно+32°C51 %739 мм3.4 м/с6 %
    15:00Ясно и безоблачно+35°C40 %739 мм2.2 м/с15 %
    18:00Ясно и безоблачно+34°C43 %739 мм3.5 м/с12 %
    21:00Ясно и безоблачно+29°C61 %739 мм4.1 м/с3 %
  • 05сентября
    Суббота
    +24°
    +33°
    Ясно и безоблачно
    ВремяПогодаТемператураВлажностьДавлениеВетер, м/сВероятность осадков
    03:00Ясно и безоблачно+24°C73 %740 мм1.8 м/с3 %
    09:00Ясно и безоблачно+26°C72 %742 мм1.4 м/с2 %
    15:00Ясно и безоблачно+32°C46 %743 мм1.3 м/с2 %
    21:00Ясно и безоблачно+28°C58 %740 мм5.6 м/с2 %
  • 06сентября
    Воскресенье
    +25°
    +34°
    Ясно и безоблачно
    ВремяПогодаТемператураВлажностьДавлениеВетер, м/сВероятность осадков
    03:00Ясно и безоблачно+26°C64 %740 мм3.9 м/с2 %
    09:00Ясно и безоблачно+27°C64 %741 мм3.5 м/с2 %
    15:00Ясно и безоблачно+34°C60 %741 мм3.7 м/с2 %
    21:00Ясно и безоблачно+28°C73 %740 мм4.8 м/с2 %
Мы используем cookies
Соглашаюсь